Time;durP1;ratioP1;P1;durP2;ratioP2;P2;SDS_P1;SDS_P2;PMS_P1;PMS_P2;Temp;Humidity;BMP_temperature;BMP_pressure;BME280_temperature;BME280_humidity;BME280_pressure;Samples;Min_cycle;Max_cycle;Signal;HPM_P1;HPM_P2
2024/04/03 00:02:06;;;;;;;5.83;3.00;;;;;;;8.98;57.72;95828.63;4964711;28;20710;-70
2024/04/03 00:04:34;;;;;;;5.53;2.90;;;;;;;9.11;57.58;95826.25;4969907;28;20170;-70
2024/04/03 00:06:59;;;;;;;5.23;3.00;;;;;;;9.09;57.79;95821.13;4969733;28;20549;-69
2024/04/03 00:09:25;;;;;;;14.47;3.80;;;;;;;9.08;57.73;95816.78;4961192;28;20452;-68
2024/04/03 00:11:50;;;;;;;4.73;3.23;;;;;;;8.61;58.53;95821.63;4954149;28;20693;-70
2024/04/03 00:14:15;;;;;;;4.97;3.20;;;;;;;8.43;59.47;95813.69;4962817;28;20201;-70
2024/04/03 00:16:41;;;;;;;6.63;3.60;;;;;;;8.49;59.61;95817.78;4955135;28;20265;-70
2024/04/03 00:19:06;;;;;;;8.90;3.47;;;;;;;8.45;59.21;95811.84;4955555;28;20184;-69
2024/04/03 00:21:31;;;;;;;6.53;3.27;;;;;;;8.56;59.26;95813.97;4954677;28;20205;-69
2024/04/03 00:23:57;;;;;;;4.40;3.07;;;;;;;8.51;59.25;95810.72;4954422;28;20241;-70
2024/04/03 00:26:22;;;;;;;3.90;2.80;;;;;;;8.53;58.83;95810.63;4958384;28;20709;-68
2024/04/03 00:28:49;;;;;;;4.30;3.00;;;;;;;8.65;58.68;95807.50;4953353;28;20272;-68
2024/04/03 00:31:14;;;;;;;3.93;2.60;;;;;;;8.55;59.17;95798.34;4957708;28;20242;-68
2024/04/03 00:33:40;;;;;;;4.40;2.90;;;;;;;8.41;59.75;95804.19;4949490;28;20425;-68
2024/04/03 00:36:06;;;;;;;7.50;3.80;;;;;;;8.29;60.57;95802.94;4957971;28;20240;-69
2024/04/03 00:38:31;;;;;;;4.43;3.10;;;;;;;8.31;60.17;95800.28;4955934;28;20848;-70
2024/04/03 00:40:58;;;;;;;3.83;3.40;;;;;;;8.24;60.00;95797.94;4949590;28;20257;-70
2024/04/03 00:43:28;;;;;;;4.63;3.20;;;;;;;8.25;60.61;95794.41;4950001;28;20232;-69
2024/04/03 00:45:55;;;;;;;4.80;3.27;;;;;;;8.37;60.51;95793.00;4960953;28;20425;-71
2024/04/03 00:48:21;;;;;;;6.37;3.33;;;;;;;8.32;61.32;95794.16;4958559;28;20540;-70
2024/04/03 00:50:48;;;;;;;8.73;3.70;;;;;;;8.45;60.99;95795.31;4963547;28;21077;-68
2024/04/03 00:53:15;;;;;;;5.23;3.00;;;;;;;8.39;60.24;95790.34;4967290;28;20425;-68
2024/04/03 00:55:41;;;;;;;3.20;2.57;;;;;;;8.43;60.53;95791.91;4968478;28;20465;-69
2024/04/03 00:58:07;;;;;;;5.70;3.07;;;;;;;8.41;60.55;95785.88;4949521;28;20876;-68
2024/04/03 01:00:35;;;;;;;4.90;2.73;;;;;;;8.19;60.64;95778.97;4956576;28;20524;-70
2024/04/03 01:03:01;;;;;;;4.43;3.30;;;;;;;8.15;61.14;95777.44;4964107;28;20197;-68
2024/04/03 01:05:26;;;;;;;3.27;2.83;;;;;;;8.11;61.78;95767.19;4968476;28;20413;-68
2024/04/03 01:07:52;;;;;;;4.33;2.97;;;;;;;8.16;60.62;95766.06;4967128;28;20440;-70
2024/04/03 01:10:17;;;;;;;4.13;3.73;;;;;;;8.17;60.81;95752.09;4968486;28;20625;-69
2024/04/03 01:12:43;;;;;;;5.53;3.80;;;;;;;8.18;61.85;95750.31;4956754;28;20556;-68
2024/04/03 01:15:10;;;;;;;3.73;3.37;;;;;;;8.20;61.59;95744.09;4945803;28;20285;-69
2024/04/03 01:17:35;;;;;;;3.83;2.73;;;;;;;8.27;61.11;95740.28;4960250;28;20195;-69
2024/04/03 01:20:01;;;;;;;5.10;3.10;;;;;;;8.38;59.95;95738.94;4967486;28;20413;-69
2024/04/03 01:22:26;;;;;;;4.07;2.60;;;;;;;8.20;60.24;95733.66;4968228;28;20201;-70
2024/04/03 01:24:51;;;;;;;2.90;2.60;;;;;;;8.11;60.48;95734.06;4958220;28;20179;-69
2024/04/03 01:27:17;;;;;;;3.80;2.77;;;;;;;8.01;61.63;95738.84;4953832;28;20181;-67
2024/04/03 01:29:42;;;;;;;3.00;2.63;;;;;;;8.10;60.75;95741.97;4962378;28;20188;-70
2024/04/03 01:32:07;;;;;;;3.90;2.87;;;;;;;8.15;61.24;95732.13;4955267;28;20285;-68
2024/04/03 01:34:33;;;;;;;5.13;2.93;;;;;;;7.88;61.65;95734.22;4950666;28;20205;-68
2024/04/03 01:36:58;;;;;;;6.20;3.27;;;;;;;7.85;62.08;95732.59;4959154;28;20189;-67
2024/04/03 01:39:24;;;;;;;6.30;3.50;;;;;;;7.75;62.47;95716.50;4960055;28;20182;-69
2024/04/03 01:41:49;;;;;;;3.47;2.97;;;;;;;7.91;61.30;95706.19;4967620;28;20296;-69
2024/04/03 01:44:14;;;;;;;6.57;3.20;;;;;;;7.98;61.54;95702.38;4967322;28;20204;-69
2024/04/03 01:46:40;;;;;;;5.80;3.17;;;;;;;8.01;60.82;95714.50;4947439;28;20178;-68
2024/04/03 01:49:05;;;;;;;5.43;3.00;;;;;;;7.93;61.17;95708.75;4941604;28;20193;-68
2024/04/03 01:51:31;;;;;;;5.00;3.17;;;;;;;7.84;62.15;95710.88;4967727;28;20247;-69
2024/04/03 01:53:56;;;;;;;5.83;3.00;;;;;;;7.95;61.41;95710.38;4967396;28;20196;-69
2024/04/03 01:56:21;;;;;;;7.43;3.10;;;;;;;8.04;60.62;95702.13;4960117;28;20170;-69
2024/04/03 01:58:47;;;;;;;3.70;3.03;;;;;;;8.02;61.38;95697.88;4948239;28;20178;-70
2024/04/03 02:01:12;;;;;;;4.20;3.40;;;;;;;7.96;61.06;95700.75;4951419;28;20212;-69
2024/04/03 02:03:38;;;;;;;3.77;3.10;;;;;;;7.89;61.46;95692.38;4946477;28;20180;-69
2024/04/03 02:06:03;;;;;;;6.00;3.00;;;;;;;7.96;61.04;95704.25;4953068;28;20190;-67
2024/04/03 02:08:29;;;;;;;4.37;2.80;;;;;;;8.01;60.96;95696.22;4935258;28;20193;-69
2024/04/03 02:10:54;;;;;;;3.37;3.07;;;;;;;7.97;60.72;95695.47;4952581;28;20213;-69
2024/04/03 02:13:19;;;;;;;3.67;3.00;;;;;;;7.90;61.67;95696.66;4965932;28;20188;-68
2024/04/03 02:15:52;;;;;;;5.37;2.90;;;;;;;7.91;61.05;95695.75;4967461;28;20209;-68
2024/04/03 02:18:17;;;;;;;5.17;3.20;;;;;;;7.86;61.29;95687.28;4958962;28;20564;-69
2024/04/03 02:20:43;;;;;;;6.93;3.57;;;;;;;7.89;61.55;95686.28;4955570;28;20453;-69
2024/04/03 02:23:08;;;;;;;4.70;2.67;;;;;;;7.81;61.19;95681.41;4944960;28;20202;-69
2024/04/03 02:25:33;;;;;;;4.67;3.30;;;;;;;7.73;60.67;95675.69;4955906;28;20525;-69
2024/04/03 02:27:59;;;;;;;3.33;2.83;;;;;;;7.76;60.60;95675.53;4948714;28;20221;-69
2024/04/03 02:30:24;;;;;;;5.70;3.10;;;;;;;7.92;60.29;95675.72;4950383;28;20188;-69
2024/04/03 02:32:50;;;;;;;16.47;3.83;;;;;;;7.81;60.48;95668.34;4953275;28;20190;-68
2024/04/03 02:35:15;;;;;;;5.27;2.63;;;;;;;7.61;62.06;95669.25;4945629;28;20242;-69
2024/04/03 02:37:40;;;;;;;4.07;3.60;;;;;;;7.77;61.31;95672.88;4959286;28;20715;-67
2024/04/03 02:40:06;;;;;;;5.20;3.80;;;;;;;7.41;61.96;95665.72;4957809;28;20196;-69
2024/04/03 02:42:31;;;;;;;5.90;2.93;;;;;;;7.53;62.30;95659.13;4959427;28;20270;-68
2024/04/03 02:44:57;;;;;;;3.60;2.90;;;;;;;7.46;62.41;95670.72;4968988;28;20180;-69
2024/04/03 02:47:22;;;;;;;7.10;3.30;;;;;;;6.98;63.08;95664.94;4972972;28;20209;-69
2024/04/03 02:49:48;;;;;;;5.00;2.67;;;;;;;7.21;63.17;95656.16;4961465;28;20252;-68
2024/04/03 02:52:13;;;;;;;4.53;3.23;;;;;;;7.18;62.88;95663.25;4957127;28;20213;-69
2024/04/03 02:54:38;;;;;;;4.30;2.97;;;;;;;7.00;63.28;95650.06;4965987;28;20228;-69
2024/04/03 02:57:04;;;;;;;5.70;2.87;;;;;;;7.15;62.39;95653.78;4955936;28;20182;-69
2024/04/03 02:59:29;;;;;;;5.57;2.80;;;;;;;7.19;61.94;95652.75;4952592;28;20186;-68
2024/04/03 03:01:55;;;;;;;4.80;2.80;;;;;;;7.35;61.45;95646.88;4964924;28;20240;-68
2024/04/03 03:04:21;;;;;;;2.77;2.33;;;;;;;7.36;60.83;95644.19;4954835;28;20205;-70
2024/04/03 03:06:47;;;;;;;3.63;2.57;;;;;;;7.40;61.16;95644.91;4958764;28;20202;-69
2024/04/03 03:09:12;;;;;;;6.00;3.13;;;;;;;7.47;60.55;95642.91;4962724;28;20410;-69
2024/04/03 03:11:38;;;;;;;6.87;4.13;;;;;;;7.38;61.24;95636.31;4955406;28;20198;-67
2024/04/03 03:14:04;;;;;;;4.67;3.37;;;;;;;7.51;60.98;95634.84;4945559;28;20210;-68
2024/04/03 03:16:29;;;;;;;7.50;3.03;;;;;;;7.53;61.28;95640.00;4941412;28;20270;-70
2024/04/03 03:18:55;;;;;;;7.77;3.40;;;;;;;7.45;61.21;95629.06;4969620;28;20452;-69
2024/04/03 03:21:20;;;;;;;6.03;3.23;;;;;;;7.54;60.84;95629.50;4973886;28;20235;-70
2024/04/03 03:23:46;;;;;;;6.47;3.30;;;;;;;7.56;61.65;95630.28;4979109;28;20185;-67
2024/04/03 03:26:11;;;;;;;3.47;2.57;;;;;;;7.55;61.75;95630.34;4971592;28;20182;-68
2024/04/03 03:28:38;;;;;;;3.87;2.77;;;;;;;7.60;61.79;95623.97;4969400;28;20174;-69
2024/04/03 03:31:03;;;;;;;4.60;2.63;;;;;;;7.64;61.68;95622.94;4960949;28;20820;-69
2024/04/03 03:33:28;;;;;;;3.57;3.00;;;;;;;7.58;62.15;95620.63;4952388;28;20508;-70
2024/04/03 03:35:56;;;;;;;5.37;2.90;;;;;;;7.54;61.58;95618.22;4955586;28;20259;-69
2024/04/03 03:38:21;;;;;;;3.17;2.40;;;;;;;7.34;62.43;95612.09;4961383;28;20190;-70
2024/04/03 03:40:47;;;;;;;4.17;2.90;;;;;;;7.49;61.69;95601.88;4952771;28;20462;-70
2024/04/03 03:43:13;;;;;;;6.73;2.90;;;;;;;7.25;63.00;95604.66;4943478;28;20643;-68
2024/04/03 03:45:46;;;;;;;5.80;3.10;;;;;;;7.28;62.57;95612.38;4950758;28;20530;-68
2024/04/03 03:48:13;;;;;;;6.10;2.47;;;;;;;7.08;62.99;95602.78;4972836;28;20449;-70
2024/04/03 03:53:25;;;;;;;5.90;3.10;;;;;;;7.31;62.88;95596.56;4975939;28;20471;-69
2024/04/03 03:55:51;;;;;;;4.67;2.97;;;;;;;7.25;62.79;95591.59;4955142;28;20480;-69
2024/04/03 03:58:17;;;;;;;5.90;3.33;;;;;;;7.14;62.85;95592.09;4967940;28;20924;-69
2024/04/03 04:00:43;;;;;;;5.17;4.00;;;;;;;7.17;63.06;95591.09;4959337;28;20203;-69
2024/04/03 04:03:08;;;;;;;5.67;4.43;;;;;;;7.00;63.74;95584.84;4931450;29;20454;-70
2024/04/03 04:05:35;;;;;;;7.00;4.07;;;;;;;6.89;64.54;95588.84;4982112;28;20691;-70
2024/04/03 04:08:01;;;;;;;6.80;3.43;;;;;;;6.90;64.71;95587.94;4966422;28;20276;-67
2024/04/03 04:10:26;;;;;;;8.27;3.40;;;;;;;6.91;64.68;95590.47;4954510;28;20612;-69
2024/04/03 04:12:53;;;;;;;7.13;3.13;;;;;;;6.93;65.34;95596.47;4951130;28;20178;-70
2024/04/03 04:15:19;;;;;;;4.50;3.57;;;;;;;7.07;64.73;95595.88;4953880;28;20297;-69
2024/04/03 04:17:44;;;;;;;4.87;3.77;;;;;;;6.94;65.85;95598.16;4957005;28;20623;-70
2024/04/03 04:20:12;;;;;;;3.53;3.17;;;;;;;6.94;65.18;95592.94;4959703;28;20189;-69
2024/04/03 04:22:37;;;;;;;8.60;3.37;;;;;;;7.04;65.35;95595.16;4969534;28;20201;-66
2024/04/03 04:25:03;;;;;;;37.00;5.23;;;;;;;7.15;65.16;95591.16;4969040;28;20425;-70
2024/04/03 04:27:30;;;;;;;14.83;4.03;;;;;;;7.14;64.65;95591.25;4961189;28;20977;-69
2024/04/03 04:29:56;;;;;;;7.43;3.73;;;;;;;7.07;64.44;95585.44;4959602;28;20173;-69
2024/04/03 04:32:21;;;;;;;6.60;4.00;;;;;;;7.15;64.91;95585.94;4952875;28;21075;-70
2024/04/03 04:34:47;;;;;;;30.30;6.70;;;;;;;7.15;64.91;95590.31;4948151;29;20214;-69
2024/04/03 04:37:12;;;;;;;19.30;4.97;;;;;;;7.15;64.95;95585.09;4956235;28;20192;-71
2024/04/03 04:39:38;;;;;;;18.67;5.70;;;;;;;7.24;64.03;95587.31;4961929;28;20392;-67
2024/04/03 04:42:03;;;;;;;20.40;5.50;;;;;;;7.04;64.63;95588.19;4961529;28;20352;-66
2024/04/03 04:44:29;;;;;;;7.83;4.10;;;;;;;7.09;64.40;95591.44;4945732;28;20656;-68
2024/04/03 04:46:56;;;;;;;26.87;6.33;;;;;;;7.07;64.81;95592.44;4958971;28;20550;-67
2024/04/03 04:49:23;;;;;;;12.40;5.97;;;;;;;7.03;65.30;95594.31;4946158;28;20218;-69
2024/04/03 04:51:48;;;;;;;31.50;4.97;;;;;;;6.96;65.44;95593.72;4959084;28;20456;-69
2024/04/03 04:54:15;;;;;;;44.10;9.80;;;;;;;6.98;65.04;95594.50;4965251;28;20534;-69
2024/04/03 04:56:42;;;;;;;18.77;5.20;;;;;;;6.84;65.43;95594.25;4959368;28;20185;-70
2024/04/03 04:59:08;;;;;;;10.23;4.90;;;;;;;7.00;65.60;95599.66;4945984;28;20452;-69
2024/04/03 05:01:34;;;;;;;50.97;7.90;;;;;;;7.05;64.86;95591.63;4948125;28;21302;-69
2024/04/03 05:04:01;;;;;;;28.60;5.87;;;;;;;7.03;65.15;95596.06;4946904;28;21023;-70
2024/04/03 05:06:26;;;;;;;25.00;6.43;;;;;;;7.00;64.66;95591.84;4954527;28;20472;-68
2024/04/03 05:08:52;;;;;;;14.77;5.30;;;;;;;6.93;65.46;95599.06;4948716;28;20807;-70
2024/04/03 05:11:17;;;;;;;12.93;5.40;;;;;;;7.09;64.70;95588.84;4946231;28;20969;-70
2024/04/03 05:13:43;;;;;;;12.43;5.67;;;;;;;7.11;64.62;95589.63;4948638;28;20186;-70
2024/04/03 05:16:13;;;;;;;12.40;4.97;;;;;;;7.00;64.83;95581.41;4950443;28;20396;-71
2024/04/03 05:18:42;;;;;;;10.63;5.67;;;;;;;7.08;64.96;95581.91;4943274;28;20537;-72
2024/04/03 05:21:07;;;;;;;8.37;4.97;;;;;;;7.02;65.12;95590.00;4951401;28;20891;-71
2024/04/03 05:23:33;;;;;;;7.73;4.77;;;;;;;6.92;65.25;95580.88;4945661;28;20478;-69
2024/04/03 05:26:00;;;;;;;10.00;5.53;;;;;;;7.00;65.09;95570.97;4948306;28;20186;-71
2024/04/03 05:28:26;;;;;;;6.77;4.73;;;;;;;6.90;65.24;95578.34;4946931;28;20193;-72
2024/04/03 05:30:52;;;;;;;30.27;7.43;;;;;;;7.23;64.64;95583.03;4944015;28;20476;-71
2024/04/03 05:33:19;;;;;;;14.10;4.90;;;;;;;7.25;64.64;95588.16;4946253;28;20269;-72
2024/04/03 05:35:55;;;;;;;12.07;5.23;;;;;;;7.03;65.10;95588.25;4947362;28;20844;-74
2024/04/03 05:38:20;;;;;;;9.17;5.10;;;;;;;7.33;64.40;95591.28;4959212;28;20451;-71
2024/04/03 05:40:47;;;;;;;22.07;6.13;;;;;;;7.07;64.82;95593.28;4965174;28;20441;-72
2024/04/03 05:43:12;;;;;;;52.67;10.03;;;;;;;7.06;65.16;95590.72;4954971;28;20190;-71
2024/04/03 05:45:38;;;;;;;14.23;6.00;;;;;;;7.28;64.81;95590.66;4953177;28;20512;-69
2024/04/03 05:48:04;;;;;;;17.90;7.83;;;;;;;7.25;64.92;95595.97;4957109;28;20185;-70
2024/04/03 05:50:30;;;;;;;15.07;5.50;;;;;;;7.45;63.57;95608.19;4953672;28;20182;-71
2024/04/03 05:52:55;;;;;;;13.00;5.90;;;;;;;7.38;63.69;95589.31;4950614;28;20205;-69
2024/04/03 05:55:21;;;;;;;9.43;5.57;;;;;;;7.34;64.31;95606.88;4953142;28;20209;-70
2024/04/03 05:57:47;;;;;;;13.30;6.80;;;;;;;7.42;63.88;95601.31;4956804;28;20847;-71
2024/04/03 06:00:13;;;;;;;7.33;4.60;;;;;;;7.34;64.23;95601.66;4949703;28;20449;-69
2024/04/03 06:02:39;;;;;;;12.43;5.90;;;;;;;7.38;63.97;95608.44;4947262;28;20305;-69
2024/04/03 06:05:05;;;;;;;11.90;4.30;;;;;;;7.39;64.53;95609.28;4945282;28;20641;-71
2024/04/03 06:07:30;;;;;;;16.20;5.37;;;;;;;7.38;64.21;95603.22;4949659;28;20448;-70
2024/04/03 06:09:56;;;;;;;11.97;6.10;;;;;;;7.51;63.57;95613.09;4954897;28;20829;-73
2024/04/03 06:12:21;;;;;;;6.83;5.10;;;;;;;7.41;64.52;95615.28;4954632;28;20217;-71
2024/04/03 06:14:47;;;;;;;7.73;4.60;;;;;;;7.49;64.19;95604.50;4950269;28;20628;-69
2024/04/03 06:17:12;;;;;;;11.87;6.13;;;;;;;7.51;64.20;95603.53;4930705;28;20197;-72
2024/04/03 06:19:37;;;;;;;8.17;4.80;;;;;;;7.59;63.75;95598.81;4953796;28;20219;-70
2024/04/03 06:22:03;;;;;;;11.83;5.27;;;;;;;7.56;64.13;95596.34;4954492;28;20312;-69
2024/04/03 06:24:29;;;;;;;10.13;5.40;;;;;;;7.70;63.66;95606.16;4957529;28;20568;-71
2024/04/03 06:26:54;;;;;;;11.20;5.73;;;;;;;7.82;62.70;95589.94;4958370;28;20181;-72
2024/04/03 06:29:20;;;;;;;7.63;4.93;;;;;;;7.81;63.04;95608.28;4954590;28;20432;-69
2024/04/03 06:31:47;;;;;;;10.13;4.60;;;;;;;7.84;62.42;95606.38;4949740;28;20641;-74
2024/04/03 06:34:13;;;;;;;15.57;4.67;;;;;;;7.95;62.24;95605.88;4956395;28;20209;-71
2024/04/03 06:36:39;;;;;;;15.17;5.50;;;;;;;8.01;61.83;95602.16;4956670;28;20871;-74
2024/04/03 06:39:04;;;;;;;14.07;4.90;;;;;;;8.00;61.65;95611.72;4953369;28;20194;-68
2024/04/03 06:41:29;;;;;;;35.40;7.43;;;;;;;8.00;62.40;95606.50;4951930;28;20205;-71
2024/04/03 06:43:55;;;;;;;9.27;4.50;;;;;;;7.97;62.20;95596.19;4955177;28;20173;-72
2024/04/03 06:46:20;;;;;;;30.23;8.30;;;;;;;7.80;62.82;95591.75;4955210;28;20189;-71
2024/04/03 06:48:45;;;;;;;13.13;4.37;;;;;;;7.85;62.41;95595.00;4960757;28;20185;-71
2024/04/03 06:51:11;;;;;;;8.70;3.50;;;;;;;7.91;62.46;95606.91;4965585;28;20668;-69
2024/04/03 06:53:38;;;;;;;4.37;3.50;;;;;;;7.94;62.24;95593.75;4967113;28;20174;-69
2024/04/03 06:56:04;;;;;;;7.57;4.07;;;;;;;7.67;64.13;95595.84;4959433;28;20926;-71
2024/04/03 06:58:39;;;;;;;9.60;4.30;;;;;;;7.73;63.98;95587.72;4957469;28;20436;-71
2024/04/03 07:01:06;;;;;;;4.40;4.03;;;;;;;7.82;62.76;95586.47;4955207;28;20216;-72
2024/04/03 07:03:32;;;;;;;3.83;3.10;;;;;;;7.91;62.44;95590.41;4959815;28;20520;-71
2024/04/03 07:05:58;;;;;;;6.70;4.23;;;;;;;8.08;62.68;95593.09;4962825;28;20413;-69
2024/04/03 07:08:23;;;;;;;4.57;3.30;;;;;;;8.25;61.03;95580.06;4967458;28;20429;-71
2024/04/03 07:10:49;;;;;;;5.10;3.53;;;;;;;8.38;61.27;95587.31;4960032;28;20320;-71
2024/04/03 07:13:14;;;;;;;4.33;3.63;;;;;;;8.36;60.81;95587.41;4959958;28;20201;-71
2024/04/03 07:15:39;;;;;;;4.23;3.27;;;;;;;8.36;61.18;95589.16;4964572;28;20233;-72
2024/04/03 07:18:05;;;;;;;7.33;3.27;;;;;;;8.49;60.44;95590.28;4974187;28;20197;-70
2024/04/03 07:20:32;;;;;;;7.00;3.23;;;;;;;8.35;61.10;95588.31;4964407;28;20177;-71
2024/04/03 07:22:59;;;;;;;6.73;3.00;;;;;;;8.43;61.08;95590.59;4970981;28;20257;-69
2024/04/03 07:25:26;;;;;;;5.33;2.80;;;;;;;8.48;61.28;95586.00;4971375;28;20405;-70
2024/04/03 07:27:52;;;;;;;4.90;3.17;;;;;;;8.36;62.08;95584.78;4971450;28;20508;-70
2024/04/03 07:30:18;;;;;;;4.53;3.50;;;;;;;8.41;61.98;95589.81;4970576;28;20466;-71
2024/04/03 07:32:44;;;;;;;3.70;2.90;;;;;;;8.61;61.66;95586.22;4970398;28;20455;-71
2024/04/03 07:35:10;;;;;;;3.40;2.60;;;;;;;8.69;61.17;95598.03;4970786;28;20510;-71
2024/04/03 07:37:39;;;;;;;3.73;2.70;;;;;;;8.73;61.38;95611.78;4971361;28;20197;-71
2024/04/03 07:40:09;;;;;;;6.07;2.93;;;;;;;8.83;61.26;95601.69;4971203;28;20186;-71
2024/04/03 07:42:40;;;;;;;11.90;3.53;;;;;;;8.93;61.41;95600.34;4971254;28;20471;-71
2024/04/03 07:45:08;;;;;;;9.77;3.77;;;;;;;8.84;61.48;95614.72;4971568;28;20445;-72
2024/04/03 07:47:34;;;;;;;9.87;2.87;;;;;;;8.68;61.07;95609.38;4971219;28;20428;-70
2024/04/03 07:50:01;;;;;;;3.67;2.87;;;;;;;8.90;60.86;95617.03;4970733;28;20412;-70
2024/04/03 07:52:26;;;;;;;5.33;2.87;;;;;;;9.04;60.73;95625.94;4970630;28;20440;-70
2024/04/03 07:54:52;;;;;;;6.80;3.53;;;;;;;9.17;60.38;95628.81;4970965;28;20475;-69
2024/04/03 07:57:17;;;;;;;6.37;4.10;;;;;;;9.06;60.53;95626.72;4957339;28;20186;-69
2024/04/03 07:59:44;;;;;;;8.10;3.10;;;;;;;9.13;60.56;95645.59;4951609;28;20201;-71
2024/04/03 08:02:09;;;;;;;29.10;4.67;;;;;;;8.95;60.78;95637.72;4951195;28;20209;-69
2024/04/03 08:04:36;;;;;;;9.77;3.47;;;;;;;8.90;61.25;95644.94;4952227;28;20422;-72
2024/04/03 08:07:02;;;;;;;7.97;3.20;;;;;;;8.99;60.90;95641.88;4951876;28;20269;-71
2024/04/03 08:09:35;;;;;;;6.80;3.50;;;;;;;9.16;59.90;95621.88;4951761;28;20505;-69
2024/04/03 08:12:01;;;;;;;2.80;2.37;;;;;;;9.39;59.84;95636.41;4951005;28;20434;-69
2024/04/03 08:14:27;;;;;;;4.67;2.90;;;;;;;9.41;59.60;95634.56;4950777;28;21319;-69
2024/04/03 08:16:55;;;;;;;8.37;2.80;;;;;;;9.41;58.69;95645.03;4951339;28;20455;-70
2024/04/03 08:19:22;;;;;;;5.00;2.53;;;;;;;9.44;58.86;95640.47;4950754;28;20421;-70
2024/04/03 08:21:48;;;;;;;8.10;3.40;;;;;;;9.56;58.65;95646.84;4951083;28;20441;-69
2024/04/03 08:24:14;;;;;;;4.40;2.80;;;;;;;9.59;59.28;95640.59;4950607;28;20477;-70
2024/04/03 08:26:40;;;;;;;5.03;2.67;;;;;;;9.60;59.31;95650.16;4950619;28;20183;-69
2024/04/03 08:29:05;;;;;;;8.20;3.23;;;;;;;9.71;59.17;95655.72;4950639;28;20420;-69
2024/04/03 08:31:31;;;;;;;4.27;3.33;;;;;;;9.91;58.57;95647.63;4950657;28;20297;-68
2024/04/03 08:33:58;;;;;;;6.70;4.10;;;;;;;9.98;58.36;95637.66;4951305;28;20174;-69
2024/04/03 08:36:24;;;;;;;15.90;3.83;;;;;;;10.03;58.16;95634.78;4950568;28;20185;-69
2024/04/03 08:38:50;;;;;;;5.97;2.97;;;;;;;10.05;58.18;95636.41;4951938;28;20488;-73
2024/04/03 08:41:15;;;;;;;9.83;3.60;;;;;;;10.12;58.03;95637.75;4950723;28;20489;-69
2024/04/03 08:43:41;;;;;;;7.80;2.90;;;;;;;10.24;57.54;95627.53;4949772;28;20241;-69
2024/04/03 08:46:07;;;;;;;8.80;3.30;;;;;;;10.20;57.32;95632.09;4949965;28;20174;-69
2024/04/03 08:48:40;;;;;;;8.63;2.90;;;;;;;10.29;57.16;95633.41;4950172;28;20174;-71
2024/04/03 08:51:06;;;;;;;4.87;3.30;;;;;;;10.23;57.55;95626.69;4950389;28;20434;-71
2024/04/03 08:53:32;;;;;;;11.30;3.90;;;;;;;10.31;57.53;95623.69;4950170;28;20433;-70
2024/04/03 08:55:58;;;;;;;6.17;4.20;;;;;;;10.50;57.00;95626.97;4950281;28;20548;-70
2024/04/03 08:58:25;;;;;;;5.57;3.23;;;;;;;10.55;56.73;95624.09;4950275;28;20174;-71
2024/04/03 09:00:51;;;;;;;4.20;3.47;;;;;;;10.52;56.93;95617.22;4949844;28;20488;-71
2024/04/03 09:03:17;;;;;;;4.07;3.27;;;;;;;10.67;56.64;95617.28;4949997;29;20482;-70
2024/04/03 09:05:43;;;;;;;6.13;3.20;;;;;;;10.78;55.48;95617.53;4950789;29;20852;-69
2024/04/03 09:08:10;;;;;;;8.00;5.20;;;;;;;10.94;56.14;95614.88;4956399;28;20260;-70
2024/04/03 09:10:50;;;;;;;11.63;3.97;;;;;;;11.27;54.87;95595.44;4968144;29;20178;-69
2024/04/03 09:13:16;;;;;;;9.57;3.60;;;;;;;11.82;53.28;95608.72;4964552;29;20423;-70
2024/04/03 09:15:42;;;;;;;10.60;4.27;;;;;;;12.40;52.47;95587.63;4965833;28;20458;-70
2024/04/03 09:18:14;;;;;;;9.80;4.03;;;;;;;13.01;50.28;95582.75;4951406;28;20977;-70
2024/04/03 09:20:41;;;;;;;14.13;4.10;;;;;;;13.00;49.79;95574.03;4948888;29;20202;-70
2024/04/03 09:23:09;;;;;;;6.20;3.10;;;;;;;13.13;49.34;95574.91;4949271;29;20422;-72
2024/04/03 09:25:36;;;;;;;7.83;2.77;;;;;;;13.10;49.14;95569.00;4950687;28;20428;-70
2024/04/03 09:28:06;;;;;;;5.20;2.80;;;;;;;12.85;49.56;95575.03;4950364;28;20524;-71
2024/04/03 09:30:33;;;;;;;4.23;2.93;;;;;;;12.74;49.81;95564.38;4949494;29;20422;-70
2024/04/03 09:33:04;;;;;;;5.50;2.60;;;;;;;12.65;49.79;95561.41;4950021;29;20432;-71
2024/04/03 09:35:34;;;;;;;5.83;2.50;;;;;;;12.64;49.07;95559.72;4949855;29;20528;-71
2024/04/03 09:38:00;;;;;;;6.93;2.03;;;;;;;12.42;48.28;95548.91;4949825;28;20418;-70
2024/04/03 09:40:28;;;;;;;32.87;4.70;;;;;;;12.41;49.70;95545.44;4949192;28;20754;-70
2024/04/03 09:42:57;;;;;;;4.83;2.20;;;;;;;12.47;49.75;95557.34;4948995;28;20194;-68
2024/04/03 09:45:24;;;;;;;5.90;2.60;;;;;;;12.43;50.04;95558.50;4950460;28;20436;-71
2024/04/03 09:48:09;;;;;;;4.10;1.90;;;;;;;12.32;49.37;95555.72;4962564;28;20870;-69
2024/04/03 09:50:41;;;;;;;3.00;1.57;;;;;;;12.55;49.46;95548.97;4965020;28;20472;-69
2024/04/03 09:53:13;;;;;;;2.80;1.90;;;;;;;12.37;50.22;95549.19;4956005;28;20824;-71
2024/04/03 09:55:40;;;;;;;10.20;2.40;;;;;;;12.53;49.96;95549.06;4964484;28;20484;-71
2024/04/03 09:58:19;;;;;;;4.00;2.00;;;;;;;12.80;48.97;95543.75;4955431;28;20983;-71
2024/04/03 10:00:52;;;;;;;2.97;2.43;;;;;;;12.84;48.64;95539.13;4955591;28;20490;-69
2024/04/03 10:03:27;;;;;;;4.33;1.93;;;;;;;12.82;48.82;95536.59;4958443;28;20433;-71
2024/04/03 10:05:59;;;;;;;3.60;2.20;;;;;;;12.91;49.30;95540.41;4952684;28;20816;-71
2024/04/03 10:08:35;;;;;;;4.67;1.77;;;;;;;13.24;48.57;95528.53;4951508;28;20457;-72
2024/04/03 10:11:07;;;;;;;4.43;1.77;;;;;;;13.45;47.94;95534.16;4945009;28;20544;-69
2024/04/03 10:13:35;;;;;;;4.67;3.37;;;;;;;13.82;47.77;95521.03;4949006;28;20837;-72
2024/04/03 10:16:04;;;;;;;11.13;2.53;;;;;;;14.30;46.33;95521.94;4950263;28;20923;-70
2024/04/03 10:18:38;;;;;;;7.97;2.30;;;;;;;14.56;45.55;95517.44;4954989;28;20418;-70
2024/04/03 10:21:05;;;;;;;4.00;1.67;;;;;;;14.82;44.88;95523.41;4947685;28;21060;-69
2024/04/03 10:23:39;;;;;;;6.60;2.33;;;;;;;14.95;43.83;95520.72;4948010;28;20428;-70
2024/04/03 10:26:06;;;;;;;9.60;2.37;;;;;;;14.97;43.12;95521.41;4944906;28;21071;-70
2024/04/03 10:28:31;;;;;;;4.37;1.70;;;;;;;14.70;43.55;95519.06;4950722;28;21165;-71
2024/04/03 10:30:57;;;;;;;21.97;2.87;;;;;;;14.48;43.41;95525.06;4955445;28;20504;-68
2024/04/03 10:33:22;;;;;;;7.13;1.97;;;;;;;14.11;44.54;95527.72;4944396;28;20186;-70
2024/04/03 10:35:49;;;;;;;6.87;1.60;;;;;;;14.02;45.36;95522.25;4957142;28;20206;-73
2024/04/03 10:38:14;;;;;;;12.17;2.40;;;;;;;14.08;45.11;95527.06;4949042;28;20221;-71
2024/04/03 10:40:40;;;;;;;2.73;1.60;;;;;;;13.96;45.45;95512.97;4957713;28;20442;-72
2024/04/03 10:43:05;;;;;;;8.20;2.20;;;;;;;14.19;45.42;95516.59;4951484;28;20183;-71
2024/04/03 10:45:31;;;;;;;3.30;2.10;;;;;;;14.25;45.57;95523.25;4952259;28;20178;-70
2024/04/03 10:47:56;;;;;;;5.23;1.80;;;;;;;14.36;45.28;95532.06;4940949;28;20579;-72
2024/04/03 10:50:22;;;;;;;9.00;2.20;;;;;;;14.44;44.79;95523.59;4949753;28;20181;-72
2024/04/03 10:52:48;;;;;;;3.90;1.70;;;;;;;14.29;44.98;95529.97;4963762;28;20271;-71
2024/04/03 10:55:19;;;;;;;12.00;1.90;;;;;;;14.23;45.47;95530.44;4960668;28;20462;-69
2024/04/03 10:57:47;;;;;;;8.70;2.10;;;;;;;14.21;44.92;95522.59;4961323;28;20487;-71
2024/04/03 11:00:16;;;;;;;23.83;3.63;;;;;;;14.34;45.18;95520.78;4951057;28;20512;-71
2024/04/03 11:02:45;;;;;;;14.57;2.50;;;;;;;14.54;45.04;95529.06;4950675;28;20445;-71
2024/04/03 11:05:15;;;;;;;4.80;2.20;;;;;;;14.68;44.46;95533.31;4951035;28;20496;-71
2024/04/03 11:07:43;;;;;;;6.13;1.93;;;;;;;14.79;44.47;95533.38;4949606;28;20475;-71
2024/04/03 11:10:11;;;;;;;4.67;1.90;;;;;;;14.96;44.36;95530.31;4958489;28;20451;-69
2024/04/03 11:12:37;;;;;;;2.07;1.47;;;;;;;15.03;44.69;95530.69;4962478;28;20512;-71
2024/04/03 11:15:04;;;;;;;8.20;2.20;;;;;;;15.34;44.30;95521.25;4952253;28;20473;-71
2024/04/03 11:17:29;;;;;;;3.70;1.80;;;;;;;14.90;45.22;95527.28;4961594;28;20415;-72
2024/04/03 11:19:55;;;;;;;6.17;1.97;;;;;;;15.09;45.48;95532.00;4970712;28;20413;-69
2024/04/03 11:22:20;;;;;;;2.67;1.50;;;;;;;15.12;44.74;95530.00;4969845;28;20197;-70
2024/04/03 11:24:46;;;;;;;3.00;1.43;;;;;;;15.07;44.51;95536.56;4970521;28;20197;-71
2024/04/03 11:27:11;;;;;;;3.00;1.10;;;;;;;14.63;42.96;95520.47;4960484;28;20619;-70
2024/04/03 11:29:38;;;;;;;18.00;2.60;;;;;;;14.72;43.79;95537.44;4960735;28;20174;-70
2024/04/03 11:32:04;;;;;;;4.57;1.43;;;;;;;14.74;43.04;95540.78;4958141;28;20207;-70
2024/04/03 11:34:29;;;;;;;6.60;1.50;;;;;;;14.74;43.00;95543.41;4952945;28;20460;-69
2024/04/03 11:36:58;;;;;;;1.30;1.00;;;;;;;14.65;43.58;95549.41;4967723;28;20701;-70